sensor_id;sensor_type;location;lat;lon;timestamp;pressure;altitude;pressure_sealevel;temperature;humidity
62103;BME280;48077;48.104;11.702;2024-03-06T00:01:16;95309.41;;;4.74;100.00
62103;BME280;48077;48.104;11.702;2024-03-06T00:03:44;95311.44;;;4.72;100.00
62103;BME280;48077;48.104;11.702;2024-03-06T00:06:12;95304.91;;;4.68;100.00
62103;BME280;48077;48.104;11.702;2024-03-06T00:08:41;95307.94;;;4.64;100.00
62103;BME280;48077;48.104;11.702;2024-03-06T00:11:09;95311.63;;;4.63;100.00
62103;BME280;48077;48.104;11.702;2024-03-06T00:13:37;95308.78;;;4.58;100.00
62103;BME280;48077;48.104;11.702;2024-03-06T00:16:05;95308.13;;;4.50;100.00
62103;BME280;48077;48.104;11.702;2024-03-06T00:18:33;95303.63;;;4.43;100.00
62103;BME280;48077;48.104;11.702;2024-03-06T00:21:01;95313.63;;;4.48;100.00
62103;BME280;48077;48.104;11.702;2024-03-06T00:23:28;95295.09;;;4.41;100.00
62103;BME280;48077;48.104;11.702;2024-03-06T00:25:58;95302.03;;;4.56;100.00
62103;BME280;48077;48.104;11.702;2024-03-06T00:28:26;95312.84;;;4.68;100.00
62103;BME280;48077;48.104;11.702;2024-03-06T00:30:55;95312.66;;;4.69;100.00
62103;BME280;48077;48.104;11.702;2024-03-06T00:33:23;95309.41;;;4.67;100.00
62103;BME280;48077;48.104;11.702;2024-03-06T00:35:51;95301.66;;;4.59;100.00
62103;BME280;48077;48.104;11.702;2024-03-06T00:38:18;95307.19;;;4.84;100.00
62103;BME280;48077;48.104;11.702;2024-03-06T00:40:46;95300.03;;;4.64;100.00
62103;BME280;48077;48.104;11.702;2024-03-06T00:43:15;95287.41;;;4.60;100.00
62103;BME280;48077;48.104;11.702;2024-03-06T00:45:43;95308.59;;;4.73;100.00
62103;BME280;48077;48.104;11.702;2024-03-06T00:48:11;95313.28;;;4.84;100.00
62103;BME280;48077;48.104;11.702;2024-03-06T00:50:39;95291.50;;;4.69;100.00
62103;BME280;48077;48.104;11.702;2024-03-06T00:53:07;95292.53;;;4.75;100.00
62103;BME280;48077;48.104;11.702;2024-03-06T00:55:35;95293.13;;;4.63;100.00
62103;BME280;48077;48.104;11.702;2024-03-06T00:58:03;95305.78;;;4.81;100.00
62103;BME280;48077;48.104;11.702;2024-03-06T01:00:34;95305.16;;;4.79;100.00
62103;BME280;48077;48.104;11.702;2024-03-06T01:07:43;95274.13;;;4.26;100.00
62103;BME280;48077;48.104;11.702;2024-03-06T01:10:11;95292.69;;;4.46;100.00
62103;BME280;48077;48.104;11.702;2024-03-06T01:12:39;95303.88;;;4.62;100.00
62103;BME280;48077;48.104;11.702;2024-03-06T01:15:07;95302.03;;;4.56;100.00
62103;BME280;48077;48.104;11.702;2024-03-06T01:17:36;95298.00;;;4.66;100.00
62103;BME280;48077;48.104;11.702;2024-03-06T01:20:04;95296.81;;;4.69;100.00
62103;BME280;48077;48.104;11.702;2024-03-06T01:22:33;95297.00;;;4.68;100.00
62103;BME280;48077;48.104;11.702;2024-03-06T01:25:03;95296.97;;;4.54;100.00
62103;BME280;48077;48.104;11.702;2024-03-06T01:27:31;95282.13;;;4.53;100.00
62103;BME280;48077;48.104;11.702;2024-03-06T01:29:59;95284.16;;;4.58;100.00
62103;BME280;48077;48.104;11.702;2024-03-06T01:32:27;95285.59;;;4.60;100.00
62103;BME280;48077;48.104;11.702;2024-03-06T01:34:54;95299.22;;;4.71;100.00
62103;BME280;48077;48.104;11.702;2024-03-06T01:37:23;95292.72;;;4.66;100.00
62103;BME280;48077;48.104;11.702;2024-03-06T01:39:51;95298.41;;;4.63;100.00
62103;BME280;48077;48.104;11.702;2024-03-06T01:42:20;95296.19;;;4.67;100.00
62103;BME280;48077;48.104;11.702;2024-03-06T01:44:48;95291.50;;;4.69;100.00
62103;BME280;48077;48.104;11.702;2024-03-06T01:47:16;95290.50;;;4.77;100.00
62103;BME280;48077;48.104;11.702;2024-03-06T01:49:44;95295.78;;;4.77;100.00
62103;BME280;48077;48.104;11.702;2024-03-06T01:52:13;95292.31;;;4.76;100.00
62103;BME280;48077;48.104;11.702;2024-03-06T01:54:42;95279.31;;;4.68;100.00
62103;BME280;48077;48.104;11.702;2024-03-06T01:57:11;95263.47;;;4.68;100.00
62103;BME280;48077;48.104;11.702;2024-03-06T01:59:41;95271.00;;;4.78;100.00
62103;BME280;48077;48.104;11.702;2024-03-06T02:02:10;95277.28;;;4.70;100.00
62103;BME280;48077;48.104;11.702;2024-03-06T02:04:38;95274.03;;;4.61;100.00
62103;BME280;48077;48.104;11.702;2024-03-06T02:07:09;95277.66;;;4.60;100.00
62103;BME280;48077;48.104;11.702;2024-03-06T02:09:38;95276.06;;;4.66;100.00
62103;BME280;48077;48.104;11.702;2024-03-06T02:12:06;95276.28;;;4.78;100.00
62103;BME280;48077;48.104;11.702;2024-03-06T02:14:35;95272.22;;;4.75;100.00
62103;BME280;48077;48.104;11.702;2024-03-06T02:17:04;95267.13;;;4.67;100.00
62103;BME280;48077;48.104;11.702;2024-03-06T02:19:40;95270.56;;;4.81;100.00
62103;BME280;48077;48.104;11.702;2024-03-06T02:22:10;95266.13;;;4.88;100.00
62103;BME280;48077;48.104;11.702;2024-03-06T02:24:42;95268.78;;;4.81;100.00
62103;BME280;48077;48.104;11.702;2024-03-06T02:27:10;95269.59;;;4.82;100.00
62103;BME280;48077;48.104;11.702;2024-03-06T02:29:38;95282.75;;;4.69;100.00
62103;BME280;48077;48.104;11.702;2024-03-06T02:32:05;95291.47;;;4.62;100.00
62103;BME280;48077;48.104;11.702;2024-03-06T02:34:33;95289.84;;;4.55;100.00
62103;BME280;48077;48.104;11.702;2024-03-06T02:37:01;95276.41;;;4.50;100.00
62103;BME280;48077;48.104;11.702;2024-03-06T02:39:30;95292.31;;;4.56;100.00
62103;BME280;48077;48.104;11.702;2024-03-06T02:41:58;95289.00;;;4.34;100.00
62103;BME280;48077;48.104;11.702;2024-03-06T02:44:26;95290.59;;;4.29;100.00
62103;BME280;48077;48.104;11.702;2024-03-06T02:46:54;95298.22;;;4.10;100.00
62103;BME280;48077;48.104;11.702;2024-03-06T02:49:22;95291.06;;;3.97;100.00
62103;BME280;48077;48.104;11.702;2024-03-06T02:51:49;95304.28;;;4.04;100.00
62103;BME280;48077;48.104;11.702;2024-03-06T02:54:18;95274.59;;;3.89;100.00
62103;BME280;48077;48.104;11.702;2024-03-06T02:56:47;95312.50;;;3.81;100.00
62103;BME280;48077;48.104;11.702;2024-03-06T02:59:14;95303.88;;;3.31;100.00
62103;BME280;48077;48.104;11.702;2024-03-06T03:01:42;95309.09;;;3.24;100.00
62103;BME280;48077;48.104;11.702;2024-03-06T03:04:10;95314.81;;;3.06;100.00
62103;BME280;48077;48.104;11.702;2024-03-06T03:06:38;95304.25;;;2.99;100.00
62103;BME280;48077;48.104;11.702;2024-03-06T03:09:05;95307.81;;;3.13;100.00
62103;BME280;48077;48.104;11.702;2024-03-06T03:11:33;95305.06;;;3.28;100.00
62103;BME280;48077;48.104;11.702;2024-03-06T03:14:03;95301.88;;;3.04;100.00
62103;BME280;48077;48.104;11.702;2024-03-06T03:16:31;95308.53;;;3.00;100.00
62103;BME280;48077;48.104;11.702;2024-03-06T03:19:00;95297.75;;;3.02;100.00
62103;BME280;48077;48.104;11.702;2024-03-06T03:21:27;95306.38;;;3.11;100.00
62103;BME280;48077;48.104;11.702;2024-03-06T03:23:55;95301.16;;;2.96;100.00
62103;BME280;48077;48.104;11.702;2024-03-06T03:26:23;95305.38;;;2.90;100.00
62103;BME280;48077;48.104;11.702;2024-03-06T03:28:51;95309.06;;;2.96;100.00
62103;BME280;48077;48.104;11.702;2024-03-06T03:31:20;95299.38;;;2.96;100.00
62103;BME280;48077;48.104;11.702;2024-03-06T03:33:47;95304.88;;;3.01;100.00
62103;BME280;48077;48.104;11.702;2024-03-06T03:36:15;95303.75;;;2.89;100.00
62103;BME280;48077;48.104;11.702;2024-03-06T03:38:43;95302.75;;;2.90;100.00
62103;BME280;48077;48.104;11.702;2024-03-06T03:41:11;95303.63;;;2.97;100.00
62103;BME280;48077;48.104;11.702;2024-03-06T03:43:40;95299.63;;;2.80;100.00
62103;BME280;48077;48.104;11.702;2024-03-06T03:46:08;95304.94;;;2.87;100.00
62103;BME280;48077;48.104;11.702;2024-03-06T03:48:38;95302.44;;;2.78;100.00
62103;BME280;48077;48.104;11.702;2024-03-06T03:51:06;95304.38;;;2.91;100.00
62103;BME280;48077;48.104;11.702;2024-03-06T03:53:34;95310.31;;;3.00;100.00
62103;BME280;48077;48.104;11.702;2024-03-06T03:56:03;95302.81;;;2.97;100.00
62103;BME280;48077;48.104;11.702;2024-03-06T03:58:31;95302.69;;;2.83;100.00
62103;BME280;48077;48.104;11.702;2024-03-06T04:00:58;95311.03;;;2.87;100.00
62103;BME280;48077;48.104;11.702;2024-03-06T04:03:26;95317.88;;;2.81;100.00
62103;BME280;48077;48.104;11.702;2024-03-06T04:05:55;95323.97;;;2.82;100.00
62103;BME280;48077;48.104;11.702;2024-03-06T04:08:23;95318.81;;;2.74;100.00
62103;BME280;48077;48.104;11.702;2024-03-06T04:10:51;95316.53;;;2.71;100.00
62103;BME280;48077;48.104;11.702;2024-03-06T04:13:19;95316.22;;;2.80;100.00
62103;BME280;48077;48.104;11.702;2024-03-06T04:15:47;95310.41;;;2.85;100.00
62103;BME280;48077;48.104;11.702;2024-03-06T04:18:15;95319.88;;;2.79;100.00
62103;BME280;48077;48.104;11.702;2024-03-06T04:20:43;95313.16;;;2.77;100.00
62103;BME280;48077;48.104;11.702;2024-03-06T04:23:12;95329.34;;;2.74;100.00
62103;BME280;48077;48.104;11.702;2024-03-06T04:25:40;95316.19;;;2.52;100.00
62103;BME280;48077;48.104;11.702;2024-03-06T04:28:08;95331.03;;;2.60;100.00
62103;BME280;48077;48.104;11.702;2024-03-06T04:30:35;95323.69;;;2.55;100.00
62103;BME280;48077;48.104;11.702;2024-03-06T04:33:03;95333.97;;;2.72;100.00
62103;BME280;48077;48.104;11.702;2024-03-06T04:35:31;95325.00;;;2.66;100.00
62103;BME280;48077;48.104;11.702;2024-03-06T04:38:01;95338.94;;;2.81;100.00
62103;BME280;48077;48.104;11.702;2024-03-06T04:40:31;95341.72;;;2.73;100.00
62103;BME280;48077;48.104;11.702;2024-03-06T04:43:00;95341.63;;;2.67;100.00
62103;BME280;48077;48.104;11.702;2024-03-06T04:45:28;95334.16;;;2.49;100.00
62103;BME280;48077;48.104;11.702;2024-03-06T04:47:56;95347.56;;;2.54;100.00
62103;BME280;48077;48.104;11.702;2024-03-06T04:50:25;95337.88;;;2.39;100.00
62103;BME280;48077;48.104;11.702;2024-03-06T04:52:53;95344.41;;;2.43;100.00
62103;BME280;48077;48.104;11.702;2024-03-06T04:55:22;95329.91;;;2.33;100.00
62103;BME280;48077;48.104;11.702;2024-03-06T04:57:53;95353.31;;;2.42;100.00
62103;BME280;48077;48.104;11.702;2024-03-06T05:00:21;95352.25;;;2.37;100.00
62103;BME280;48077;48.104;11.702;2024-03-06T05:02:49;95346.53;;;2.33;100.00
62103;BME280;48077;48.104;11.702;2024-03-06T05:05:35;95347.44;;;2.40;100.00
62103;BME280;48077;48.104;11.702;2024-03-06T05:08:20;95373.25;;;2.52;100.00
62103;BME280;48077;48.104;11.702;2024-03-06T05:11:05;95364.78;;;2.71;100.00
62103;BME280;48077;48.104;11.702;2024-03-06T05:13:53;95372.31;;;2.38;100.00
62103;BME280;48077;48.104;11.702;2024-03-06T05:16:38;95377.00;;;2.42;100.00
62103;BME280;48077;48.104;11.702;2024-03-06T05:19:23;95382.56;;;2.33;100.00
62103;BME280;48077;48.104;11.702;2024-03-06T05:22:14;95376.38;;;2.40;100.00
62103;BME280;48077;48.104;11.702;2024-03-06T05:24:59;95383.56;;;2.32;100.00
62103;BME280;48077;48.104;11.702;2024-03-06T05:27:44;95384.56;;;2.31;100.00
62103;BME280;48077;48.104;11.702;2024-03-06T05:30:31;95384.75;;;2.29;100.00
62103;BME280;48077;48.104;11.702;2024-03-06T05:33:16;95390.63;;;2.46;100.00
62103;BME280;48077;48.104;11.702;2024-03-06T05:36:02;95395.28;;;2.29;100.00
62103;BME280;48077;48.104;11.702;2024-03-06T05:38:48;95393.19;;;2.25;100.00
62103;BME280;48077;48.104;11.702;2024-03-06T05:41:33;95397.19;;;2.20;100.00
62103;BME280;48077;48.104;11.702;2024-03-06T05:44:18;95397.19;;;2.20;100.00
62103;BME280;48077;48.104;11.702;2024-03-06T05:47:06;95385.94;;;2.12;100.00
62103;BME280;48077;48.104;11.702;2024-03-06T05:49:52;95407.00;;;1.97;100.00
62103;BME280;48077;48.104;11.702;2024-03-06T05:52:37;95407.06;;;2.03;100.00
62103;BME280;48077;48.104;11.702;2024-03-06T05:55:22;95403.47;;;2.05;100.00
62103;BME280;48077;48.104;11.702;2024-03-06T05:58:07;95404.34;;;2.12;100.00
62103;BME280;48077;48.104;11.702;2024-03-06T06:00:39;95416.88;;;2.25;100.00
62103;BME280;48077;48.104;11.702;2024-03-06T06:03:08;95408.97;;;2.25;100.00
62103;BME280;48077;48.104;11.702;2024-03-06T06:05:38;95406.81;;;2.28;100.00
62103;BME280;48077;48.104;11.702;2024-03-06T06:08:07;95408.72;;;2.19;100.00
62103;BME280;48077;48.104;11.702;2024-03-06T06:10:35;95415.16;;;2.17;100.00
62103;BME280;48077;48.104;11.702;2024-03-06T06:13:03;95417.81;;;2.17;100.00
62103;BME280;48077;48.104;11.702;2024-03-06T06:15:31;95428.31;;;2.17;100.00
62103;BME280;48077;48.104;11.702;2024-03-06T06:17:59;95427.94;;;2.05;100.00
62103;BME280;48077;48.104;11.702;2024-03-06T06:20:29;95429.94;;;2.18;100.00
62103;BME280;48077;48.104;11.702;2024-03-06T06:22:57;95428.59;;;2.22;100.00
62103;BME280;48077;48.104;11.702;2024-03-06T06:25:25;95429.31;;;2.31;100.00
62103;BME280;48077;48.104;11.702;2024-03-06T06:27:52;95440.13;;;2.36;100.00
62103;BME280;48077;48.104;11.702;2024-03-06T06:30:20;95440.28;;;2.34;100.00
62103;BME280;48077;48.104;11.702;2024-03-06T06:32:48;95443.72;;;2.35;100.00
62103;BME280;48077;48.104;11.702;2024-03-06T06:35:16;95448.66;;;2.38;100.00
62103;BME280;48077;48.104;11.702;2024-03-06T06:37:45;95453.19;;;2.44;100.00
62103;BME280;48077;48.104;11.702;2024-03-06T06:40:14;95437.47;;;2.36;100.00
62103;BME280;48077;48.104;11.702;2024-03-06T06:42:44;95446.75;;;2.32;100.00
62103;BME280;48077;48.104;11.702;2024-03-06T06:45:16;95451.63;;;2.35;100.00
62103;BME280;48077;48.104;11.702;2024-03-06T06:47:44;95451.91;;;2.40;100.00
62103;BME280;48077;48.104;11.702;2024-03-06T06:50:13;95454.81;;;2.30;100.00
62103;BME280;48077;48.104;11.702;2024-03-06T06:52:41;95452.56;;;2.27;100.00
62103;BME280;48077;48.104;11.702;2024-03-06T06:55:10;95456.25;;;2.33;100.00
62103;BME280;48077;48.104;11.702;2024-03-06T06:57:38;95457.06;;;2.33;100.00
62103;BME280;48077;48.104;11.702;2024-03-06T07:00:06;95460.16;;;2.37;100.00
62103;BME280;48077;48.104;11.702;2024-03-06T07:02:38;95464.78;;;2.35;100.00
62103;BME280;48077;48.104;11.702;2024-03-06T07:05:07;95465.59;;;2.35;100.00
62103;BME280;48077;48.104;11.702;2024-03-06T07:07:36;95463.25;;;2.40;100.00
62103;BME280;48077;48.104;11.702;2024-03-06T07:10:05;95462.53;;;2.32;100.00
62103;BME280;48077;48.104;11.702;2024-03-06T07:12:36;95466.69;;;2.41;100.00
62103;BME280;48077;48.104;11.702;2024-03-06T07:15:05;95460.44;;;2.42;100.00
62103;BME280;48077;48.104;11.702;2024-03-06T07:17:33;95468.22;;;2.35;100.00
62103;BME280;48077;48.104;11.702;2024-03-06T07:20:01;95461.81;;;2.23;100.00
62103;BME280;48077;48.104;11.702;2024-03-06T07:22:31;95473.63;;;2.27;100.00
62103;BME280;48077;48.104;11.702;2024-03-06T07:25:00;95460.25;;;2.29;100.00
62103;BME280;48077;48.104;11.702;2024-03-06T07:27:28;95474.25;;;2.29;100.00
62103;BME280;48077;48.104;11.702;2024-03-06T07:29:58;95474.78;;;2.25;100.00
62103;BME280;48077;48.104;11.702;2024-03-06T07:32:26;95475.97;;;2.22;100.00
62103;BME280;48077;48.104;11.702;2024-03-06T07:34:53;95476.25;;;2.27;100.00
62103;BME280;48077;48.104;11.702;2024-03-06T07:37:21;95484.41;;;2.32;100.00
62103;BME280;48077;48.104;11.702;2024-03-06T07:39:49;95482.75;;;2.31;100.00
62103;BME280;48077;48.104;11.702;2024-03-06T07:42:19;95477.22;;;2.41;100.00
62103;BME280;48077;48.104;11.702;2024-03-06T07:44:47;95481.84;;;2.39;100.00
62103;BME280;48077;48.104;11.702;2024-03-06T07:47:16;95482.75;;;2.31;100.00
62103;BME280;48077;48.104;11.702;2024-03-06T07:49:44;95486.47;;;2.37;100.00
62103;BME280;48077;48.104;11.702;2024-03-06T07:52:12;95485.66;;;2.36;100.00
62103;BME280;48077;48.104;11.702;2024-03-06T07:54:40;95488.31;;;2.36;100.00
62103;BME280;48077;48.104;11.702;2024-03-06T07:57:07;95493.81;;;2.41;100.00
62103;BME280;48077;48.104;11.702;2024-03-06T07:59:36;95492.75;;;2.36;100.00
62103;BME280;48077;48.104;11.702;2024-03-06T08:02:03;95495.91;;;2.31;100.00
62103;BME280;48077;48.104;11.702;2024-03-06T08:04:34;95498.28;;;2.41;100.00
62103;BME280;48077;48.104;11.702;2024-03-06T08:07:03;95499.63;;;2.52;100.00
62103;BME280;48077;48.104;11.702;2024-03-06T08:09:31;95506.81;;;2.58;100.00
62103;BME280;48077;48.104;11.702;2024-03-06T08:11:59;95489.84;;;2.46;100.00
62103;BME280;48077;48.104;11.702;2024-03-06T08:14:27;95513.81;;;2.51;100.00
62103;BME280;48077;48.104;11.702;2024-03-06T08:16:55;95518.91;;;2.52;100.00
62103;BME280;48077;48.104;11.702;2024-03-06T08:19:23;95521.97;;;2.71;100.00
62103;BME280;48077;48.104;11.702;2024-03-06T08:21:54;95517.72;;;2.55;100.00
62103;BME280;48077;48.104;11.702;2024-03-06T08:24:22;95523.88;;;2.47;100.00
62103;BME280;48077;48.104;11.702;2024-03-06T08:26:50;95524.81;;;2.54;100.00
62103;BME280;48077;48.104;11.702;2024-03-06T08:29:19;95520.53;;;2.53;100.00
62103;BME280;48077;48.104;11.702;2024-03-06T08:31:47;95527.53;;;2.61;100.00
62103;BME280;48077;48.104;11.702;2024-03-06T08:34:14;95522.16;;;2.69;100.00
62103;BME280;48077;48.104;11.702;2024-03-06T08:36:44;95531.88;;;2.69;100.00
62103;BME280;48077;48.104;11.702;2024-03-06T08:39:13;95525.06;;;2.74;100.00
62103;BME280;48077;48.104;11.702;2024-03-06T08:41:42;95533.50;;;2.70;100.00
62103;BME280;48077;48.104;11.702;2024-03-06T08:44:10;95527.50;;;2.76;100.00
62103;BME280;48077;48.104;11.702;2024-03-06T08:46:38;95530.88;;;2.84;100.00
62103;BME280;48077;48.104;11.702;2024-03-06T08:49:06;95529.03;;;2.85;100.00
62103;BME280;48077;48.104;11.702;2024-03-06T08:51:36;95533.66;;;2.83;100.00
62103;BME280;48077;48.104;11.702;2024-03-06T08:54:04;95537.22;;;2.90;100.00
62103;BME280;48077;48.104;11.702;2024-03-06T08:56:33;95535.16;;;2.86;100.00
62103;BME280;48077;48.104;11.702;2024-03-06T08:59:02;95539.84;;;2.90;100.00
62103;BME280;48077;48.104;11.702;2024-03-06T09:01:30;95540.84;;;2.89;100.00
62103;BME280;48077;48.104;11.702;2024-03-06T09:03:58;95543.59;;;2.66;100.00
62103;BME280;48077;48.104;11.702;2024-03-06T09:06:25;95549.16;;;2.71;100.00
62103;BME280;48077;48.104;11.702;2024-03-06T09:08:55;95553.84;;;2.91;100.00
62103;BME280;48077;48.104;11.702;2024-03-06T09:11:23;95555.09;;;2.95;100.00
62103;BME280;48077;48.104;11.702;2024-03-06T09:13:52;95536.69;;;2.80;100.00
62103;BME280;48077;48.104;11.702;2024-03-06T09:16:19;95559.75;;;2.78;100.00
62103;BME280;48077;48.104;11.702;2024-03-06T09:18:47;95563.84;;;2.66;100.00
62103;BME280;48077;48.104;11.702;2024-03-06T09:21:15;95559.22;;;2.82;100.00
62103;BME280;48077;48.104;11.702;2024-03-06T09:23:43;95559.13;;;2.91;100.00
62103;BME280;48077;48.104;11.702;2024-03-06T09:26:10;95562.84;;;2.81;100.00
62103;BME280;48077;48.104;11.702;2024-03-06T09:28:39;95560.03;;;2.68;100.00
62103;BME280;48077;48.104;11.702;2024-03-06T09:31:08;95562.75;;;2.90;100.00
62103;BME280;48077;48.104;11.702;2024-03-06T09:33:38;95564.84;;;2.94;100.00
62103;BME280;48077;48.104;11.702;2024-03-06T09:36:07;95568.28;;;2.95;100.00
62103;BME280;48077;48.104;11.702;2024-03-06T09:38:40;95569.19;;;2.87;100.00
62103;BME280;48077;48.104;11.702;2024-03-06T09:41:08;95566.47;;;2.95;100.00
62103;BME280;48077;48.104;11.702;2024-03-06T09:43:36;95576.19;;;2.95;100.00
62103;BME280;48077;48.104;11.702;2024-03-06T09:46:04;95578.00;;;2.94;100.00
62103;BME280;48077;48.104;11.702;2024-03-06T09:48:33;95571.16;;;3.00;100.00
62103;BME280;48077;48.104;11.702;2024-03-06T09:51:05;95576.63;;;3.13;100.00
62103;BME280;48077;48.104;11.702;2024-03-06T09:53:33;95575.44;;;3.16;100.00
62103;BME280;48077;48.104;11.702;2024-03-06T09:56:01;95585.59;;;3.34;100.00
62103;BME280;48077;48.104;11.702;2024-03-06T09:58:29;95592.50;;;3.35;100.00
62103;BME280;48077;48.104;11.702;2024-03-06T10:00:57;95590.38;;;3.09;100.00
62103;BME280;48077;48.104;11.702;2024-03-06T10:03:25;95588.53;;;3.09;100.00
62103;BME280;48077;48.104;11.702;2024-03-06T10:05:55;95589.97;;;3.12;100.00
62103;BME280;48077;48.104;11.702;2024-03-06T10:08:24;95590.72;;;3.06;100.00
62103;BME280;48077;48.104;11.702;2024-03-06T10:10:53;95586.88;;;3.08;100.00
62103;BME280;48077;48.104;11.702;2024-03-06T10:13:24;95584.72;;;3.12;100.00
62103;BME280;48077;48.104;11.702;2024-03-06T10:15:59;95600.72;;;3.25;100.00
62103;BME280;48077;48.104;11.702;2024-03-06T10:18:28;95592.06;;;3.16;100.00
62103;BME280;48077;48.104;11.702;2024-03-06T10:20:57;95597.13;;;3.33;100.00
62103;BME280;48077;48.104;11.702;2024-03-06T10:23:25;95573.59;;;3.16;100.00
62103;BME280;48077;48.104;11.702;2024-03-06T10:25:55;95605.59;;;3.28;100.00
62103;BME280;48077;48.104;11.702;2024-03-06T10:28:23;95591.94;;;3.39;100.00
62103;BME280;48077;48.104;11.702;2024-03-06T10:30:51;95599.47;;;3.42;100.00
62103;BME280;48077;48.104;11.702;2024-03-06T10:33:19;95600.47;;;3.41;100.00
62103;BME280;48077;48.104;11.702;2024-03-06T10:35:48;95604.84;;;3.34;100.00
62103;BME280;48077;48.104;11.702;2024-03-06T10:38:19;95610.31;;;3.33;100.00
62103;BME280;48077;48.104;11.702;2024-03-06T10:40:50;95608.09;;;3.51;100.00
62103;BME280;48077;48.104;11.702;2024-03-06T10:43:20;95605.34;;;3.59;100.00
62103;BME280;48077;48.104;11.702;2024-03-06T10:45:50;95613.44;;;3.58;100.00
62103;BME280;48077;48.104;11.702;2024-03-06T10:48:18;95617.09;;;3.57;100.00
62103;BME280;48077;48.104;11.702;2024-03-06T10:50:48;95614.69;;;3.62;100.00
62103;BME280;48077;48.104;11.702;2024-03-06T10:53:18;95619.63;;;3.65;100.00
62103;BME280;48077;48.104;11.702;2024-03-06T10:55:50;95623.81;;;3.59;100.00
62103;BME280;48077;48.104;11.702;2024-03-06T10:58:19;95629.34;;;3.64;100.00
62103;BME280;48077;48.104;11.702;2024-03-06T11:00:48;95623.66;;;3.46;100.00
62103;BME280;48077;48.104;11.702;2024-03-06T11:03:16;95621.28;;;3.51;100.00
62103;BME280;48077;48.104;11.702;2024-03-06T11:05:44;95621.34;;;3.58;100.00
62103;BME280;48077;48.104;11.702;2024-03-06T11:08:15;95606.75;;;3.40;100.00
62103;BME280;48077;48.104;11.702;2024-03-06T11:10:45;95625.63;;;3.59;100.00
62103;BME280;48077;48.104;11.702;2024-03-06T11:13:23;95622.66;;;3.47;100.00
62103;BME280;48077;48.104;11.702;2024-03-06T11:15:53;95612.56;;;3.51;100.00
62103;BME280;48077;48.104;11.702;2024-03-06T11:18:43;95616.72;;;3.60;100.00
62103;BME280;48077;48.104;11.702;2024-03-06T11:21:33;95619.22;;;3.68;100.00
62103;BME280;48077;48.104;11.702;2024-03-06T11:24:17;95619.63;;;3.65;100.00
62103;BME280;48077;48.104;11.702;2024-03-06T11:26:49;95622.78;;;3.75;100.00
62103;BME280;48077;48.104;11.702;2024-03-06T11:29:18;95629.91;;;3.60;100.00
62103;BME280;48077;48.104;11.702;2024-03-06T11:32:06;95626.50;;;3.66;100.00
62103;BME280;48077;48.104;11.702;2024-03-06T11:34:37;95625.13;;;3.70;100.00
62103;BME280;48077;48.104;11.702;2024-03-06T11:37:05;95631.28;;;3.56;100.00
62103;BME280;48077;48.104;11.702;2024-03-06T11:39:37;95626.94;;;3.48;100.00
62103;BME280;48077;48.104;11.702;2024-03-06T11:42:07;95620.72;;;3.56;100.00
62103;BME280;48077;48.104;11.702;2024-03-06T11:44:36;95622.06;;;3.67;100.00
62103;BME280;48077;48.104;11.702;2024-03-06T11:47:05;95630.53;;;3.62;100.00
62103;BME280;48077;48.104;11.702;2024-03-06T11:49:35;95631.72;;;3.59;100.00
62103;BME280;48077;48.104;11.702;2024-03-06T11:52:05;95626.47;;;3.44;100.00
62103;BME280;48077;48.104;11.702;2024-03-06T11:54:34;95633.72;;;3.57;100.00
62103;BME280;48077;48.104;11.702;2024-03-06T11:57:04;95634.13;;;3.54;100.00
62103;BME280;48077;48.104;11.702;2024-03-06T11:59:34;95630.28;;;3.57;100.00
62103;BME280;48077;48.104;11.702;2024-03-06T12:02:06;95637.69;;;3.68;100.00
62103;BME280;48077;48.104;11.702;2024-03-06T12:04:36;95640.50;;;3.67;100.00
62103;BME280;48077;48.104;11.702;2024-03-06T12:07:06;95637.75;;;3.53;100.00
62103;BME280;48077;48.104;11.702;2024-03-06T12:09:35;95634.53;;;3.58;100.00
62103;BME280;48077;48.104;11.702;2024-03-06T12:12:08;95641.34;;;3.67;100.00
62103;BME280;48077;48.104;11.702;2024-03-06T12:14:39;95641.59;;;3.72;100.00
62103;BME280;48077;48.104;11.702;2024-03-06T12:17:12;95635.13;;;3.75;100.00
62103;BME280;48077;48.104;11.702;2024-03-06T12:19:42;95644.16;;;3.65;100.00
62103;BME280;48077;48.104;11.702;2024-03-06T12:22:11;95636.44;;;3.64;100.00
62103;BME280;48077;48.104;11.702;2024-03-06T12:24:41;95641.28;;;3.60;100.00
62103;BME280;48077;48.104;11.702;2024-03-06T12:27:09;95648.53;;;3.73;100.00
62103;BME280;48077;48.104;11.702;2024-03-06T12:29:38;95643.59;;;3.70;100.00
62103;BME280;48077;48.104;11.702;2024-03-06T12:32:16;95643.94;;;3.60;100.00
62103;BME280;48077;48.104;11.702;2024-03-06T12:34:56;95654.97;;;3.71;100.00
62103;BME280;48077;48.104;11.702;2024-03-06T12:37:29;95650.44;;;3.64;100.00
62103;BME280;48077;48.104;11.702;2024-03-06T12:40:13;95655.81;;;3.71;100.00
62103;BME280;48077;48.104;11.702;2024-03-06T12:42:41;95654.09;;;3.63;100.00
62103;BME280;48077;48.104;11.702;2024-03-06T12:45:11;95644.09;;;3.59;100.00
62103;BME280;48077;48.104;11.702;2024-03-06T12:47:40;95654.38;;;3.54;100.00
62103;BME280;48077;48.104;11.702;2024-03-06T12:50:09;95650.28;;;3.51;100.00
62103;BME280;48077;48.104;11.702;2024-03-06T12:52:37;95659.19;;;3.65;100.00
62103;BME280;48077;48.104;11.702;2024-03-06T12:55:06;95658.63;;;3.70;100.00
62103;BME280;48077;48.104;11.702;2024-03-06T12:57:34;95661.97;;;3.78;100.00
62103;BME280;48077;48.104;11.702;2024-03-06T13:00:03;95665.00;;;3.75;100.00
62103;BME280;48077;48.104;11.702;2024-03-06T13:02:34;95655.25;;;3.76;100.00
62103;BME280;48077;48.104;11.702;2024-03-06T13:05:02;95657.50;;;3.79;100.00
62103;BME280;48077;48.104;11.702;2024-03-06T13:07:30;95661.16;;;3.78;100.00
62103;BME280;48077;48.104;11.702;2024-03-06T13:09:58;95658.28;;;3.58;100.00